Time,TemperatureF,DewpointF,PressureIn,WindDirection,WindDirectionDegrees,WindSpeedMPH,WindSpeedGustMPH,Humidity,HourlyPrecipIn,Conditions,Clouds,dailyrainin,SoftwareType,DateUTC
2013-02-07 00:02:00,29.0,15.0,-100.00,ENE,60,4.0,7.0,56,0.00,,,-99.99,,2013-02-07 05:02:00,
2013-02-07 00:12:00,28.0,15.0,-100.00,East,85,3.0,6.0,58,0.00,,,-99.99,,2013-02-07 05:12:00,
2013-02-07 00:21:00,28.0,15.0,-100.00,East,85,3.0,6.0,58,0.00,,,-99.99,,2013-02-07 05:21:00,
2013-02-07 00:32:00,27.0,15.0,-100.00,East,90,2.0,6.0,60,0.00,,,-99.99,,2013-02-07 05:32:00,
2013-02-07 00:42:00,27.0,15.0,-100.00,East,100,3.0,6.0,60,0.00,,,-99.99,,2013-02-07 05:42:00,
2013-02-07 00:52:00,27.0,16.0,-100.00,ENE,60,1.0,3.0,62,0.00,,,-99.99,,2013-02-07 05:52:00,
2013-02-07 01:02:00,27.0,16.0,-100.00,ENE,60,1.0,3.0,62,0.00,,,-99.99,,2013-02-07 06:02:00,
2013-02-07 01:11:00,26.0,15.0,-100.00,SSE,160,0.0,2.0,62,0.00,,,-99.99,,2013-02-07 06:11:00,
2013-02-07 01:22:00,26.0,15.0,-100.00,SE,140,0.0,2.0,64,0.00,,,-99.99,,2013-02-07 06:22:00,
2013-02-07 01:32:00,26.0,15.0,-100.00,SE,140,0.0,2.0,64,0.00,,,-99.99,,2013-02-07 06:32:00,
2013-02-07 01:43:00,25.0,15.0,-100.00,WSW,250,1.0,2.0,67,0.00,,,-99.99,,2013-02-07 06:43:00,
2013-02-07 01:52:00,25.0,16.0,-100.00,West,265,2.0,2.0,69,0.00,,,-99.99,,2013-02-07 06:52:00,
2013-02-07 02:02:00,25.0,16.0,-100.00,West,265,2.0,2.0,69,0.00,,,-99.99,,2013-02-07 07:02:00,
2013-02-07 02:11:00,25.0,17.0,-100.00,West,265,0.0,1.0,70,0.00,,,-99.99,,2013-02-07 07:11:00,
2013-02-07 02:22:00,25.0,17.0,-100.00,West,265,0.0,1.0,70,0.00,,,-99.99,,2013-02-07 07:22:00,
2013-02-07 02:32:00,26.0,17.0,-100.00,WNW,290,0.0,1.0,70,0.00,,,-99.99,,2013-02-07 07:32:00,
2013-02-07 02:42:00,26.0,17.0,-100.00,SE,145,1.0,3.0,69,0.00,,,-99.99,,2013-02-07 07:42:00,
2013-02-07 02:52:00,26.0,17.0,-100.00,SE,130,1.0,2.0,69,0.00,,,-99.99,,2013-02-07 07:52:00,
2013-02-07 03:02:00,26.0,17.0,-100.00,SE,130,1.0,2.0,69,0.00,,,-99.99,,2013-02-07 08:02:00,
2013-02-07 03:11:00,26.0,17.0,-100.00,ESE,120,1.0,3.0,68,0.00,,,-99.99,,2013-02-07 08:11:00,
2013-02-07 03:21:00,26.0,17.0,-100.00,ESE,120,1.0,3.0,68,0.00,,,-99.99,,2013-02-07 08:21:00,
2013-02-07 03:32:00,26.0,17.0,-100.00,SE,125,3.0,5.0,68,0.00,,,-99.99,,2013-02-07 08:32:00,
2013-02-07 03:42:00,25.0,17.0,-100.00,ESE,115,3.0,5.0,70,0.00,,,-99.99,,2013-02-07 08:42:00,
2013-02-07 03:52:00,24.0,17.0,-100.00,WSW,240,2.0,4.0,73,0.00,,,-99.99,,2013-02-07 08:52:00,
2013-02-07 04:02:00,24.0,17.0,-100.00,WSW,240,2.0,4.0,73,0.00,,,-99.99,,2013-02-07 09:02:00,
2013-02-07 04:11:00,24.0,17.0,-100.00,South,175,0.0,1.0,75,0.00,,,-99.99,,2013-02-07 09:11:00,
2013-02-07 04:21:00,24.0,17.0,-100.00,South,175,0.0,1.0,75,0.00,,,-99.99,,2013-02-07 09:21:00,
2013-02-07 04:32:00,24.0,17.0,-100.00,SSE,155,1.0,2.0,75,0.00,,,-99.99,,2013-02-07 09:32:00,
2013-02-07 04:42:00,24.0,18.0,-100.00,ESE,120,2.0,4.0,77,0.00,,,-99.99,,2013-02-07 09:42:00,
2013-02-07 04:52:00,24.0,18.0,-100.00,ESE,115,1.0,4.0,79,0.00,,,-99.99,,2013-02-07 09:52:00,
2013-02-07 05:02:00,24.0,18.0,-100.00,ESE,115,1.0,4.0,79,0.00,,,-99.99,,2013-02-07 10:02:00,
2013-02-07 05:11:00,24.0,18.0,-100.00,SE,130,0.0,2.0,79,0.00,,,-99.99,,2013-02-07 10:11:00,
2013-02-07 05:22:00,24.0,18.0,-100.00,West,260,1.0,3.0,79,0.00,,,-99.99,,2013-02-07 10:22:00,
2013-02-07 05:32:00,24.0,18.0,-100.00,West,260,1.0,3.0,79,0.00,,,-99.99,,2013-02-07 10:32:00,
2013-02-07 05:42:00,23.0,18.0,-100.00,WSW,250,0.0,1.0,81,0.00,,,-99.99,,2013-02-07 10:42:00,
2013-02-07 05:51:00,25.0,19.0,-100.00,SSE,165,1.0,2.0,81,0.00,,,-99.99,,2013-02-07 10:51:00,
2013-02-07 06:01:00,25.0,19.0,-100.00,SSE,165,1.0,2.0,81,0.00,,,-99.99,,2013-02-07 11:01:00,
2013-02-07 06:11:00,25.0,19.0,-100.00,SSW,210,1.0,2.0,79,0.00,,,-99.99,,2013-02-07 11:11:00,
2013-02-07 06:23:00,26.0,20.0,-100.00,NE,50,0.0,2.0,79,0.00,,,-99.99,,2013-02-07 11:23:00,
2013-02-07 06:32:00,26.0,20.0,-100.00,NE,50,0.0,2.0,79,0.00,,,-99.99,,2013-02-07 11:32:00,
2013-02-07 06:44:00,27.0,20.0,-100.00,East,80,1.0,2.0,76,0.00,,,-99.99,,2013-02-07 11:44:00,
2013-02-07 06:52:00,28.0,20.0,-100.00,NNE,20,1.0,2.0,73,0.00,,,-99.99,,2013-02-07 11:52:00,
2013-02-07 07:02:00,28.0,20.0,-100.00,NNE,20,1.0,2.0,73,0.00,,,-99.99,,2013-02-07 12:02:00,
2013-02-07 07:11:00,28.0,19.0,-100.00,ENE,75,1.0,2.0,70,0.00,,,-99.99,,2013-02-07 12:11:00,
2013-02-07 07:22:00,28.0,19.0,-100.00,ENE,75,1.0,2.0,70,0.00,,,-99.99,,2013-02-07 12:22:00,
2013-02-07 07:33:00,27.0,19.0,-100.00,ENE,70,2.0,3.0,73,0.00,,,-99.99,,2013-02-07 12:33:00,
2013-02-07 07:42:00,27.0,20.0,-100.00,East,85,1.0,3.0,74,0.00,,,-99.99,,2013-02-07 12:42:00,
2013-02-07 07:52:00,27.0,20.0,-100.00,East,85,1.0,3.0,74,0.00,,,-99.99,,2013-02-07 12:52:00,
2013-02-07 08:03:00,27.0,20.0,-100.00,East,80,1.0,4.0,74,0.00,,,-99.99,,2013-02-07 13:03:00,
2013-02-07 08:12:00,27.0,20.0,-100.00,East,90,2.0,4.0,73,0.00,,,-99.99,,2013-02-07 13:12:00,
2013-02-07 08:22:00,28.0,20.0,-100.00,ESE,115,1.0,4.0,73,0.00,,,-99.99,,2013-02-07 13:22:00,
2013-02-07 08:32:00,28.0,20.0,-100.00,ESE,115,1.0,4.0,73,0.00,,,-99.99,,2013-02-07 13:32:00,
2013-02-07 08:42:00,28.0,21.0,-100.00,East,90,2.0,4.0,73,0.00,,,-99.99,,2013-02-07 13:42:00,
2013-02-07 08:52:00,28.0,21.0,-100.00,East,90,2.0,4.0,73,0.00,,,-99.99,,2013-02-07 13:52:00,
2013-02-07 09:01:00,29.0,20.0,-100.00,East,100,1.0,3.0,70,0.00,,,-99.99,,2013-02-07 14:01:00,
2013-02-07 09:11:00,30.0,20.0,-100.00,East,90,1.0,2.0,67,0.00,,,-99.99,,2013-02-07 14:11:00,
2013-02-07 09:22:00,30.0,20.0,-100.00,East,90,1.0,2.0,67,0.00,,,-99.99,,2013-02-07 14:22:00,
2013-02-07 09:32:00,31.0,20.0,-100.00,ESE,110,1.0,2.0,65,0.00,,,-99.99,,2013-02-07 14:32:00,
2013-02-07 09:42:00,31.0,20.0,-100.00,East,90,1.0,2.0,63,0.00,,,-99.99,,2013-02-07 14:42:00,
2013-02-07 09:52:00,31.0,20.0,-100.00,East,90,1.0,2.0,63,0.00,,,-99.99,,2013-02-07 14:52:00,
2013-02-07 10:02:00,32.0,20.0,-100.00,North,355,1.0,2.0,61,0.00,,,-99.99,,2013-02-07 15:02:00,
2013-02-07 10:11:00,32.0,19.0,-100.00,East,85,1.0,3.0,58,0.00,,,-99.99,,2013-02-07 15:11:00,
2013-02-07 10:22:00,33.0,18.0,-100.00,ESE,115,2.0,6.0,54,0.00,,,-99.99,,2013-02-07 15:22:00,
2013-02-07 10:32:00,33.0,18.0,-100.00,ESE,115,2.0,6.0,54,0.00,,,-99.99,,2013-02-07 15:32:00,
2013-02-07 10:42:00,35.0,20.0,-100.00,NW,320,1.0,4.0,55,0.00,,,-99.99,,2013-02-07 15:42:00,
2013-02-07 10:52:00,35.0,20.0,-100.00,NW,320,1.0,4.0,55,0.00,,,-99.99,,2013-02-07 15:52:00,
2013-02-07 11:01:00,34.0,19.0,-100.00,South,175,2.0,7.0,53,0.00,,,-99.99,,2013-02-07 16:01:00,
2013-02-07 11:11:00,34.0,17.0,-100.00,South,190,6.0,9.0,49,0.00,,,-99.99,,2013-02-07 16:11:00,
2013-02-07 11:21:00,34.0,17.0,-100.00,South,190,6.0,9.0,49,0.00,,,-99.99,,2013-02-07 16:21:00,
2013-02-07 11:32:00,35.0,16.0,-100.00,South,170,6.0,12.0,47,0.00,,,-99.99,,2013-02-07 16:32:00,
2013-02-07 11:42:00,35.0,16.0,-100.00,South,185,7.0,12.0,47,0.00,,,-99.99,,2013-02-07 16:42:00,
2013-02-07 11:52:00,35.0,16.0,-100.00,SSE,165,7.0,12.0,46,0.00,,,-99.99,,2013-02-07 16:52:00,
2013-02-07 12:01:00,35.0,16.0,-100.00,SSE,165,7.0,12.0,46,0.00,,,-99.99,,2013-02-07 17:01:00,
2013-02-07 12:11:00,35.0,16.0,-100.00,South,185,7.0,12.0,46,0.00,,,-99.99,,2013-02-07 17:11:00,
2013-02-07 12:21:00,35.0,16.0,-100.00,South,185,7.0,12.0,46,0.00,,,-99.99,,2013-02-07 17:21:00,
2013-02-07 12:32:00,35.0,16.0,-100.00,SSE,165,6.0,11.0,45,0.00,,,-99.99,,2013-02-07 17:32:00,
2013-02-07 12:43:00,35.0,16.0,-100.00,SSE,165,5.0,12.0,45,0.00,,,-99.99,,2013-02-07 17:43:00,
2013-02-07 12:52:00,35.0,16.0,-100.00,SSE,165,7.0,12.0,45,0.00,,,-99.99,,2013-02-07 17:52:00,
2013-02-07 13:02:00,35.0,16.0,-100.00,SSE,165,7.0,12.0,45,0.00,,,-99.99,,2013-02-07 18:02:00,
2013-02-07 13:11:00,36.0,16.0,-100.00,SSE,160,9.0,12.0,45,0.00,,,-99.99,,2013-02-07 18:11:00,
2013-02-07 13:23:00,36.0,16.0,-100.00,SSE,160,9.0,12.0,45,0.00,,,-99.99,,2013-02-07 18:23:00,
2013-02-07 13:32:00,35.0,17.0,-100.00,South,175,7.0,12.0,47,0.00,,,-99.99,,2013-02-07 18:32:00,
2013-02-07 13:42:00,35.0,17.0,-100.00,SSE,165,9.0,12.0,47,0.00,,,-99.99,,2013-02-07 18:42:00,
2013-02-07 13:52:00,35.0,17.0,-100.00,SSE,165,9.0,12.0,47,0.00,,,-99.99,,2013-02-07 18:52:00,
2013-02-07 14:01:00,36.0,17.0,-100.00,SSW,195,10.0,15.0,47,0.00,,,-99.99,,2013-02-07 19:01:00,
2013-02-07 14:11:00,36.0,18.0,-100.00,South,180,9.0,14.0,47,0.00,,,-99.99,,2013-02-07 19:11:00,
2013-02-07 14:22:00,36.0,18.0,-100.00,SSE,165,8.0,16.0,47,0.00,,,-99.99,,2013-02-07 19:22:00,
2013-02-07 14:32:00,36.0,18.0,-100.00,SSE,165,8.0,16.0,47,0.00,,,-99.99,,2013-02-07 19:32:00,
2013-02-07 14:42:00,36.0,18.0,-100.00,SSW,195,7.0,12.0,47,0.00,,,-99.99,,2013-02-07 19:42:00,
2013-02-07 14:52:00,36.0,18.0,-100.00,South,185,7.0,12.0,48,0.00,,,-99.99,,2013-02-07 19:52:00,
2013-02-07 15:01:00,36.0,18.0,-100.00,South,185,7.0,12.0,48,0.00,,,-99.99,,2013-02-07 20:01:00,
2013-02-07 15:11:00,36.0,18.0,-100.00,SSE,160,6.0,11.0,48,0.00,,,-99.99,,2013-02-07 20:11:00,
2013-02-07 15:22:00,36.0,18.0,-100.00,SSE,160,6.0,11.0,48,0.00,,,-99.99,,2013-02-07 20:22:00,
2013-02-07 15:32:00,36.0,18.0,-100.00,SSE,165,6.0,14.0,48,0.00,,,-99.99,,2013-02-07 20:32:00,
2013-02-07 15:42:00,36.0,18.0,-100.00,SSE,155,6.0,14.0,48,0.00,,,-99.99,,2013-02-07 20:42:00,
2013-02-07 15:52:00,37.0,19.0,-100.00,ESE,120,4.0,9.0,47,0.00,,,-99.99,,2013-02-07 20:52:00,
2013-02-07 16:02:00,37.0,19.0,-100.00,ESE,120,4.0,9.0,47,0.00,,,-99.99,,2013-02-07 21:02:00,
2013-02-07 16:11:00,37.0,19.0,-100.00,SE,135,4.0,9.0,48,0.00,,,-99.99,,2013-02-07 21:11:00,
2013-02-07 16:22:00,37.0,19.0,-100.00,SE,135,4.0,9.0,48,0.00,,,-99.99,,2013-02-07 21:22:00,
2013-02-07 16:32:00,37.0,19.0,-100.00,East,100,3.0,8.0,48,0.00,,,-99.99,,2013-02-07 21:32:00,
2013-02-07 16:42:00,37.0,19.0,-100.00,South,175,7.0,9.0,48,0.00,,,-99.99,,2013-02-07 21:42:00,
2013-02-07 16:52:00,36.0,19.0,-100.00,SE,130,6.0,11.0,49,0.00,,,-99.99,,2013-02-07 21:52:00,
2013-02-07 17:02:00,36.0,19.0,-100.00,SE,130,6.0,11.0,49,0.00,,,-99.99,,2013-02-07 22:02:00,
2013-02-07 17:11:00,36.0,19.0,-100.00,SE,145,4.0,10.0,50,0.00,,,-99.99,,2013-02-07 22:11:00,
2013-02-07 17:21:00,36.0,19.0,-100.00,SE,145,4.0,10.0,50,0.00,,,-99.99,,2013-02-07 22:21:00,
2013-02-07 17:32:00,36.0,19.0,-100.00,SSE,150,6.0,9.0,50,0.00,,,-99.99,,2013-02-07 22:32:00,
2013-02-07 17:42:00,36.0,19.0,-100.00,South,170,4.0,8.0,51,0.00,,,-99.99,,2013-02-07 22:42:00,
2013-02-07 17:51:00,36.0,19.0,-100.00,South,170,4.0,8.0,51,0.00,,,-99.99,,2013-02-07 22:51:00,
2013-02-07 18:02:00,35.0,19.0,-100.00,SE,135,3.0,7.0,52,0.00,,,-99.99,,2013-02-07 23:02:00,
2013-02-07 18:11:00,35.0,20.0,-100.00,SE,130,3.0,7.0,54,0.00,,,-99.99,,2013-02-07 23:11:00,
2013-02-07 18:22:00,35.0,20.0,-100.00,SE,130,3.0,7.0,54,0.00,,,-99.99,,2013-02-07 23:22:00,
2013-02-07 18:32:00,34.0,20.0,-100.00,SE,130,3.0,6.0,55,0.00,,,-99.99,,2013-02-07 23:32:00,
2013-02-07 18:42:00,34.0,20.0,-100.00,SE,125,2.0,6.0,56,0.00,,,-99.99,,2013-02-07 23:42:00,
2013-02-07 18:52:00,34.0,20.0,-100.00,SE,125,2.0,6.0,56,0.00,,,-99.99,,2013-02-07 23:52:00,
2013-02-07 19:02:00,34.0,20.0,-100.00,SE,125,3.0,5.0,56,0.00,,,-99.99,,2013-02-08 00:02:00,
2013-02-07 19:11:00,34.0,20.0,-100.00,ESE,110,2.0,4.0,57,0.00,,,-99.99,,2013-02-08 00:11:00,
2013-02-07 19:21:00,34.0,20.0,-100.00,SE,140,2.0,4.0,57,0.00,,,-99.99,,2013-02-08 00:21:00,
2013-02-07 19:32:00,34.0,20.0,-100.00,SE,140,2.0,4.0,57,0.00,,,-99.99,,2013-02-08 00:32:00,
2013-02-07 19:42:00,34.0,20.0,-100.00,East,100,1.0,4.0,57,0.00,,,-99.99,,2013-02-08 00:42:00,
2013-02-07 19:52:00,34.0,20.0,-100.00,ESE,105,1.0,4.0,57,0.00,,,-99.99,,2013-02-08 00:52:00,
2013-02-07 20:01:00,34.0,20.0,-100.00,ESE,105,1.0,4.0,57,0.00,,,-99.99,,2013-02-08 01:01:00,
2013-02-07 20:11:00,34.0,20.0,-100.00,ESE,110,2.0,4.0,58,0.00,,,-99.99,,2013-02-08 01:11:00,
2013-02-07 20:21:00,34.0,20.0,-100.00,ESE,110,2.0,4.0,58,0.00,,,-99.99,,2013-02-08 01:21:00,
2013-02-07 20:32:00,34.0,21.0,-100.00,SE,130,2.0,6.0,59,0.00,,,-99.99,,2013-02-08 01:32:00,
2013-02-07 20:41:00,34.0,21.0,-100.00,SE,130,3.0,6.0,58,0.00,,,-99.99,,2013-02-08 01:41:00,
2013-02-07 20:51:00,34.0,21.0,-100.00,SE,125,3.0,6.0,58,0.00,,,-99.99,,2013-02-08 01:51:00,
2013-02-07 21:01:00,34.0,21.0,-100.00,SE,125,3.0,6.0,58,0.00,,,-99.99,,2013-02-08 02:01:00,
2013-02-07 21:11:00,34.0,21.0,-100.00,SE,130,4.0,7.0,58,0.00,,,-99.99,,2013-02-08 02:11:00,
2013-02-07 21:21:00,34.0,21.0,-100.00,SE,125,1.0,7.0,58,0.00,,,-99.99,,2013-02-08 02:21:00,
2013-02-07 21:32:00,34.0,21.0,-100.00,SE,125,1.0,7.0,58,0.00,,,-99.99,,2013-02-08 02:32:00,
2013-02-07 21:42:00,34.0,21.0,-100.00,ESE,120,1.0,3.0,59,0.00,,,-99.99,,2013-02-08 02:42:00,
2013-02-07 21:52:00,34.0,21.0,-100.00,ESE,110,1.0,3.0,59,0.00,,,-99.99,,2013-02-08 02:52:00,
2013-02-07 22:02:00,34.0,21.0,-100.00,ESE,110,1.0,3.0,59,0.00,,,-99.99,,2013-02-08 03:02:00,
2013-02-07 22:12:00,34.0,21.0,-100.00,East,95,1.0,3.0,59,0.00,,,-99.99,,2013-02-08 03:12:00,
2013-02-07 22:22:00,34.0,21.0,-100.00,East,95,1.0,3.0,59,0.00,,,-99.99,,2013-02-08 03:22:00,
2013-02-07 22:32:00,34.0,21.0,-100.00,East,95,2.0,4.0,60,0.00,,,-99.99,,2013-02-08 03:32:00,
2013-02-07 22:42:00,34.0,22.0,-100.00,ESE,120,3.0,6.0,61,0.00,,,-99.99,,2013-02-08 03:42:00,
2013-02-07 22:52:00,34.0,22.0,-100.00,ESE,110,1.0,6.0,63,0.00,,,-99.99,,2013-02-08 03:52:00,
2013-02-07 23:02:00,34.0,22.0,-100.00,ESE,110,1.0,6.0,63,0.00,,,-99.99,,2013-02-08 04:02:00,
2013-02-07 23:11:00,34.0,23.0,-100.00,East,100,3.0,5.0,64,0.00,,,-99.99,,2013-02-08 04:11:00,
2013-02-07 23:21:00,34.0,23.0,-100.00,East,100,3.0,5.0,64,0.00,,,-99.99,,2013-02-08 04:21:00,
2013-02-07 23:32:00,34.0,23.0,-100.00,ESE,105,4.0,7.0,65,0.00,,,-99.99,,2013-02-08 04:32:00,
2013-02-07 23:42:00,34.0,24.0,-100.00,SE,130,2.0,7.0,66,0.00,,,-99.99,,2013-02-08 04:42:00,
2013-02-07 23:51:00,33.0,24.0,-100.00,ESE,120,4.0,8.0,68,0.00,,,-99.99,,2013-02-08 04:51:00,